Airfield :
LOGIN :

Register | Disclaimer

   EN    FR    IT 

 










Legend :    VFR   Marginal VFR   IFR   Intensive IFR   Very Intensive IFR
Visi :
Ceiling :
>= 8 km
>= 3000ft
5 to 8 km
1000 to 3000 ft
1500m to 5 km
500 to 1000 ft
800 to 1500m
200 to 500 ft
< 800m
< 200 ft
Symbols :   Thunderstorms  Fog  Heavy snow  Heavy precipitations  Wind > 20 kt
SIGMETs :     Misc.  Thunderstorms  Icing  Turbulence  Mountain Waves  Volcanic Ashes







- Airport Elevation : 2096 ft
- IATA code : AUR
- Download approach charts


LFLW - Aurillac

CURRENT METAR :
  • 270300Z AUTO 09003KT 070V130 0500 R15/0650N FZFG VV/// M02/M02 Q1014

EXPIRED METARs :
  • 270230Z AUTO 07002KT 5000 0600 R15/P2000 BCFG VV/// M02/M02 Q1014
  • 270200Z AUTO 08001KT 8000 NSC M02/M03 Q1014
  • 270130Z AUTO VRB03KT CAVOK M02/M02 Q1014
  • 270100Z AUTO 27003KT CAVOK M01/M02 Q1014
  • 270030Z AUTO 30004KT 9000 NSC M01/M02 Q1014

Expired Forecast.
No reported NOTAMs for that airfield.
2 SIGMETs reported for the Bordeaux FIR (LFBB) :
 
Severe turbulence
LFBB SIGMET 2 VALID 262300/270300 LFPW
LFBB BORDEAUX FIR/UIR SEV TURB FCST WI N4530 E00300 - N4400 W00100 - N4645 E00245 FL140/230 STNR NC=
Severe turbulence
LFBB SIGMET 1 VALID 270300/270700 LFPW
LFBB BORDEAUX FIR/UIR SEV TURB FCST WI N4630 E00300 - N4515 E00245 - N4415 E00030 - N4500 W00015 FL140/220 STNR NC=



MET'MAP, your aeronautical weather chart ! - Copyright ORBIFLY December 2007 - Disclaimer

ORBIFLY MET'MAP TEAM :

Programming & Development : Alexandra Zaïnal
Concept & Development : Baudouin d'Aumeries
Co-Development & Prog : Marc-Olivier Méhu
Technical & hardware support : Manuel Goepfert

Contact : metmap@orbifly.com




SOURCES & CREDITS :

   NOAA